Map

Track Data

SID SEASON NUMBER BASIN SUBBASIN NAME ISO_TIME NATURE LAT LON WMO_WIND WMO_PRES WMO_AGENCY TRACK_TYPE DIST2LAND LANDFALL IFLAG USA_AGENCY USA_ATCF_ID USA_LAT USA_LON USA_RECORD USA_STATUS USA_WIND USA_PRES USA_SSHS USA_R34_NE USA_R34_SE USA_R34_SW USA_R34_NW USA_R50_NE USA_R50_SE USA_R50_SW USA_R50_NW USA_R64_NE USA_R64_SE USA_R64_SW USA_R64_NW USA_POCI USA_ROCI USA_RMW USA_EYE TOKYO_LAT TOKYO_LON TOKYO_GRADE TOKYO_WIND TOKYO_PRES TOKYO_R50_DIR TOKYO_R50_LONG TOKYO_R50_SHORT TOKYO_R30_DIR TOKYO_R30_LONG TOKYO_R30_SHORT TOKYO_LAND CMA_LAT CMA_LON CMA_CAT CMA_WIND CMA_PRES HKO_LAT HKO_LON HKO_CAT HKO_WIND HKO_PRES NEWDELHI_LAT NEWDELHI_LON NEWDELHI_GRADE NEWDELHI_WIND NEWDELHI_PRES NEWDELHI_CI NEWDELHI_DP NEWDELHI_POCI REUNION_LAT REUNION_LON REUNION_TYPE REUNION_WIND REUNION_PRES REUNION_TNUM REUNION_CI REUNION_RMW REUNION_R34_NE REUNION_R34_SE REUNION_R34_SW REUNION_R34_NW REUNION_R50_NE REUNION_R50_SE REUNION_R50_SW REUNION_R50_NW REUNION_R64_NE REUNION_R64_SE REUNION_R64_SW REUNION_R64_NW BOM_LAT BOM_LON BOM_TYPE BOM_WIND BOM_PRES BOM_TNUM BOM_CI BOM_RMW BOM_R34_NE BOM_R34_SE BOM_R34_SW BOM_R34_NW BOM_R50_NE BOM_R50_SE BOM_R50_SW BOM_R50_NW BOM_R64_NE BOM_R64_SE BOM_R64_SW BOM_R64_NW BOM_ROCI BOM_POCI BOM_EYE BOM_POS_METHOD BOM_PRES_METHOD NADI_LAT NADI_LON NADI_CAT NADI_WIND NADI_PRES WELLINGTON_LAT WELLINGTON_LON WELLINGTON_WIND WELLINGTON_PRES DS824_LAT DS824_LON DS824_STAGE DS824_WIND DS824_PRES TD9636_LAT TD9636_LON TD9636_STAGE TD9636_WIND TD9636_PRES TD9635_LAT TD9635_LON TD9635_WIND TD9635_PRES TD9635_ROCI NEUMANN_LAT NEUMANN_LON NEUMANN_CLASS NEUMANN_WIND NEUMANN_PRES MLC_LAT MLC_LON MLC_CLASS MLC_WIND MLC_PRES USA_GUST BOM_GUST BOM_GUST_PER REUNION_GUST REUNION_GUST_PER USA_SEAHGT USA_SEARAD_NE USA_SEARAD_SE USA_SEARAD_SW USA_SEARAD_NW STORM_SPEED STORM_DIR
1873265N22274 1873 17 NA GM NOT_NAMED 1873-09-22 00:00:00 TS 22.2000 -86.1000 40 hurdat_atl main 118 118 O_____________ hurdat_atl AL041873 22.2000 -86.1000 TS 40 0 10 3
1873265N22274 1873 17 NA GM NOT_NAMED 1873-09-22 03:00:00 TS 22.6950 -86.0897 main 144 144 P_____________ AL041873 22.6950 -86.0897 TS 40 0 10 5
1873265N22274 1873 17 NA GM NOT_NAMED 1873-09-22 06:00:00 TS 23.2000 -86.0000 40 hurdat_atl main 177 177 O_____________ hurdat_atl AL041873 23.2000 -86.0000 TS 40 0 11 16
1873265N22274 1873 17 NA GM NOT_NAMED 1873-09-22 09:00:00 TS 23.7151 -85.7802 main 211 211 P_____________ AL041873 23.7151 -85.7802 TS 40 0 11 25
1873265N22274 1873 17 NA GM NOT_NAMED 1873-09-22 12:00:00 TS 24.2000 -85.5000 40 hurdat_atl main 226 226 O_____________ hurdat_atl AL041873 24.2000 -85.5000 TS 40 0 10 27
1873265N22274 1873 17 NA GM NOT_NAMED 1873-09-22 15:00:00 TS 24.5998 -85.2793 main 250 250 P_____________ AL041873 24.5998 -85.2793 TS 40 0 9 30
1873265N22274 1873 17 NA GM NOT_NAMED 1873-09-22 18:00:00 TS 25.0000 -85.0000 40 hurdat_atl main 276 271 O_____________ hurdat_atl AL041873 25.0000 -85.0000 TS 40 0 11 36
1873265N22274 1873 17 NA GM NOT_NAMED 1873-09-22 21:00:00 TS 25.4852 -84.5653 main 271 200 P_____________ AL041873 25.4852 -84.5653 TS 45 0 13 39
1873265N22274 1873 17 NA GM NOT_NAMED 1873-09-23 00:00:00 TS 26.0000 -84.1000 50 hurdat_atl main 200 148 O_____________ hurdat_atl AL041873 26.0000 -84.1000 TS 50 0 12 36
1873265N22274 1873 17 NA GM NOT_NAMED 1873-09-23 03:00:00 TS 26.4815 -83.7533 main 148 85 P_____________ AL041873 26.4815 -83.7533 TS 50 0 12 32
1873265N22274 1873 17 NA GM NOT_NAMED 1873-09-23 06:00:00 TS 27.0000 -83.4000 50 hurdat_atl main 85 29 O_____________ hurdat_atl AL041873 27.0000 -83.4000 TS 50 0 14 33
1873265N22274 1873 17 NA GM NOT_NAMED 1873-09-23 09:00:00 TS 27.6166 -82.9336 main 22 0 P_____________ AL041873 27.6166 -82.9336 TS 50 0 14 34
1873265N22274 1873 17 NA GM NOT_NAMED 1873-09-23 10:00:00 TS 27.8000 -82.8000 50 hurdat_atl main 0 0 O_____________ hurdat_atl AL041873 27.8000 -82.8000 L TS 50 0 11 31
1873265N22274 1873 17 NA NA NOT_NAMED 1873-09-23 12:00:00 TS 28.1000 -82.6000 50 hurdat_atl main 0 0 O_____________ hurdat_atl AL041873 28.1000 -82.6000 TS 50 0 12 37
1873265N22274 1873 17 NA NA NOT_NAMED 1873-09-23 15:00:00 TS 28.6255 -82.0941 main 0 0 P_____________ AL041873 28.6255 -82.0941 TS 45 0 17 44
1873265N22274 1873 17 NA NA NOT_NAMED 1873-09-23 18:00:00 TS 29.3000 -81.3000 40 hurdat_atl main 0 0 O_____________ hurdat_atl AL041873 29.3000 -81.3000 TS 40 0 22 47
1873265N22274 1873 17 NA NA NOT_NAMED 1873-09-23 21:00:00 TS 30.1559 -80.2185 main 114 114 P_____________ AL041873 30.1559 -80.2185 TS 40 0 27 48
1873265N22274 1873 17 NA NA NOT_NAMED 1873-09-24 00:00:00 TS 31.1000 -79.0000 40 hurdat_atl main 192 172 O_____________ hurdat_atl AL041873 31.1000 -79.0000 TS 40 0 27 47
1873265N22274 1873 17 NA NA NOT_NAMED 1873-09-24 03:00:00 TS 31.9817 -77.9620 main 172 157 P_____________ AL041873 31.9817 -77.9620 TS 40 0 26 46
1873265N22274 1873 17 NA NA NOT_NAMED 1873-09-24 06:00:00 TS 32.9000 -76.8000 40 hurdat_atl main 157 133 O_____________ hurdat_atl AL041873 32.9000 -76.8000 TS 40 0 29 49
1873265N22274 1873 17 NA NA NOT_NAMED 1873-09-24 09:00:00 TS 33.8994 -75.3040 main 141 141 P_____________ AL041873 33.8994 -75.3040 TS 45 0 33 53
1873265N22274 1873 17 NA NA NOT_NAMED 1873-09-24 12:00:00 TS 34.9000 -73.6000 50 hurdat_atl main 199 199 O_____________ hurdat_atl AL041873 34.9000 -73.6000 TS 50 0 34 56
1873265N22274 1873 17 NA NA NOT_NAMED 1873-09-24 15:00:00 TS 35.8297 -71.8219 main 332 332 P_____________ AL041873 35.8297 -71.8219 TS 50 0 34 58
1873265N22274 1873 17 NA NA NOT_NAMED 1873-09-24 18:00:00 TS 36.7000 -70.0000 50 hurdat_atl main 482 O_____________ hurdat_atl AL041873 36.7000 -70.0000 TS 50 0 34 59

About IBTrACS Database

This database is a web-friendly format of International Best Track Archive for Climate Stewardship (IBTrACS), a global best track data archive curated by NOAA dating back to 1842.

Updated: 2021-12-08